sensor_id;sensor_type;location;lat;lon;timestamp;temperature;humidity
79491;SHT31;73788;53.048;18.472;2023-12-29T00:01:57;6.00;81.10
79491;SHT31;73788;53.048;18.472;2023-12-29T00:04:26;5.87;81.10
79491;SHT31;73788;53.048;18.472;2023-12-29T00:06:53;5.75;81.10
79491;SHT31;73788;53.048;18.472;2023-12-29T00:09:20;5.62;81.10
79491;SHT31;73788;53.048;18.472;2023-12-29T00:11:48;5.55;81.08
79491;SHT31;73788;53.048;18.472;2023-12-29T00:14:17;5.50;81.05
79491;SHT31;73788;53.048;18.472;2023-12-29T00:16:44;5.43;81.01
79491;SHT31;73788;53.048;18.472;2023-12-29T00:19:11;5.41;81.02
79491;SHT31;73788;53.048;18.472;2023-12-29T00:21:39;5.40;81.00
79491;SHT31;73788;53.048;18.472;2023-12-29T00:24:06;5.30;81.00
79491;SHT31;73788;53.048;18.472;2023-12-29T00:26:33;5.20;81.00
79491;SHT31;73788;53.048;18.472;2023-12-29T00:29:01;5.16;80.99
79491;SHT31;73788;53.048;18.472;2023-12-29T00:31:28;5.10;80.98
79491;SHT31;73788;53.048;18.472;2023-12-29T00:33:55;5.04;80.98
79491;SHT31;73788;53.048;18.472;2023-12-29T00:36:22;5.05;80.94
79491;SHT31;73788;53.048;18.472;2023-12-29T00:38:51;4.99;80.92
79491;SHT31;73788;53.048;18.472;2023-12-29T00:41:18;4.94;80.90
79491;SHT31;73788;53.048;18.472;2023-12-29T00:43:45;4.96;80.93
79491;SHT31;73788;53.048;18.472;2023-12-29T00:46:14;5.05;80.94
79491;SHT31;73788;53.048;18.472;2023-12-29T00:48:44;5.10;80.94
79491;SHT31;73788;53.048;18.472;2023-12-29T00:51:13;5.05;80.93
79491;SHT31;73788;53.048;18.472;2023-12-29T00:53:40;5.02;80.92
79491;SHT31;73788;53.048;18.472;2023-12-29T00:56:10;5.04;80.94
79491;SHT31;73788;53.048;18.472;2023-12-29T00:58:38;5.01;80.91
79491;SHT31;73788;53.048;18.472;2023-12-29T01:01:07;4.97;80.91
79491;SHT31;73788;53.048;18.472;2023-12-29T01:03:35;4.96;80.90
79491;SHT31;73788;53.048;18.472;2023-12-29T01:06:02;4.96;80.91
79491;SHT31;73788;53.048;18.472;2023-12-29T01:08:29;4.98;80.91
79491;SHT31;73788;53.048;18.472;2023-12-29T01:10:57;4.97;80.90
79491;SHT31;73788;53.048;18.472;2023-12-29T01:13:24;4.95;80.93
79491;SHT31;73788;53.048;18.472;2023-12-29T01:15:51;4.93;80.92
79491;SHT31;73788;53.048;18.472;2023-12-29T01:18:18;4.96;80.91
79491;SHT31;73788;53.048;18.472;2023-12-29T01:20:45;5.01;80.91
79491;SHT31;73788;53.048;18.472;2023-12-29T01:23:12;5.01;80.91
79491;SHT31;73788;53.048;18.472;2023-12-29T01:25:39;5.02;80.92
79491;SHT31;73788;53.048;18.472;2023-12-29T01:28:06;5.04;80.96
79491;SHT31;73788;53.048;18.472;2023-12-29T01:30:33;5.04;80.94
79491;SHT31;73788;53.048;18.472;2023-12-29T01:33:00;5.05;80.98
79491;SHT31;73788;53.048;18.472;2023-12-29T01:35:27;5.06;80.98
79491;SHT31;73788;53.048;18.472;2023-12-29T01:37:54;5.07;80.98
79491;SHT31;73788;53.048;18.472;2023-12-29T01:40:23;5.05;80.99
79491;SHT31;73788;53.048;18.472;2023-12-29T01:42:50;5.04;80.96
79491;SHT31;73788;53.048;18.472;2023-12-29T01:45:26;5.03;80.98
79491;SHT31;73788;53.048;18.472;2023-12-29T01:47:53;4.99;80.97
79491;SHT31;73788;53.048;18.472;2023-12-29T01:50:21;4.99;80.99
79491;SHT31;73788;53.048;18.472;2023-12-29T01:52:49;4.92;80.96
79491;SHT31;73788;53.048;18.472;2023-12-29T01:55:18;4.91;80.99
79491;SHT31;73788;53.048;18.472;2023-12-29T01:57:48;4.92;81.00
79491;SHT31;73788;53.048;18.472;2023-12-29T02:00:16;4.91;81.00
79491;SHT31;73788;53.048;18.472;2023-12-29T02:02:47;4.96;81.00
79491;SHT31;73788;53.048;18.472;2023-12-29T02:05:16;5.00;81.00
79491;SHT31;73788;53.048;18.472;2023-12-29T02:07:46;4.97;81.00
79491;SHT31;73788;53.048;18.472;2023-12-29T02:10:17;4.94;81.00
79491;SHT31;73788;53.048;18.472;2023-12-29T02:12:46;4.96;81.00
79491;SHT31;73788;53.048;18.472;2023-12-29T02:15:15;4.93;81.00
79491;SHT31;73788;53.048;18.472;2023-12-29T02:17:48;4.89;81.00
79491;SHT31;73788;53.048;18.472;2023-12-29T02:20:26;4.84;81.00
79491;SHT31;73788;53.048;18.472;2023-12-29T02:22:53;4.82;81.00
79491;SHT31;73788;53.048;18.472;2023-12-29T02:25:21;4.85;81.00
79491;SHT31;73788;53.048;18.472;2023-12-29T02:33:27;4.74;81.00
79491;SHT31;73788;53.048;18.472;2023-12-29T02:35:59;4.73;81.00
79491;SHT31;73788;53.048;18.472;2023-12-29T02:38:29;4.67;81.00
79491;SHT31;73788;53.048;18.472;2023-12-29T02:40:57;4.61;81.00
79491;SHT31;73788;53.048;18.472;2023-12-29T02:43:25;4.56;81.01
79491;SHT31;73788;53.048;18.472;2023-12-29T02:45:52;4.58;81.00
79491;SHT31;73788;53.048;18.472;2023-12-29T02:48:19;4.50;81.00
79491;SHT31;73788;53.048;18.472;2023-12-29T02:50:46;4.47;81.00
79491;SHT31;73788;53.048;18.472;2023-12-29T02:53:13;4.43;81.00
79491;SHT31;73788;53.048;18.472;2023-12-29T02:55:40;4.34;81.00
79491;SHT31;73788;53.048;18.472;2023-12-29T02:58:08;4.21;81.00
79491;SHT31;73788;53.048;18.472;2023-12-29T03:00:36;4.15;81.00
79491;SHT31;73788;53.048;18.472;2023-12-29T03:03:03;4.11;81.00
79491;SHT31;73788;53.048;18.472;2023-12-29T03:05:30;4.07;81.00
79491;SHT31;73788;53.048;18.472;2023-12-29T03:07:57;4.05;81.00
79491;SHT31;73788;53.048;18.472;2023-12-29T03:10:24;4.07;81.00
79491;SHT31;73788;53.048;18.472;2023-12-29T03:12:52;4.08;81.02
79491;SHT31;73788;53.048;18.472;2023-12-29T03:15:19;4.09;81.03
79491;SHT31;73788;53.048;18.472;2023-12-29T03:17:46;4.10;81.02
79491;SHT31;73788;53.048;18.472;2023-12-29T03:20:13;4.17;81.10
79491;SHT31;73788;53.048;18.472;2023-12-29T03:22:40;4.18;81.10
79491;SHT31;73788;53.048;18.472;2023-12-29T03:28:12;4.18;81.09
79491;SHT31;73788;53.048;18.472;2023-12-29T03:30:39;4.17;81.10
79491;SHT31;73788;53.048;18.472;2023-12-29T03:33:06;4.17;81.10
79491;SHT31;73788;53.048;18.472;2023-12-29T03:35:34;4.18;81.10
79491;SHT31;73788;53.048;18.472;2023-12-29T03:38:01;4.18;81.10
79491;SHT31;73788;53.048;18.472;2023-12-29T03:40:29;4.19;81.12
79491;SHT31;73788;53.048;18.472;2023-12-29T03:42:56;4.24;81.18
79491;SHT31;73788;53.048;18.472;2023-12-29T03:45:23;4.33;81.20
79491;SHT31;73788;53.048;18.472;2023-12-29T03:47:50;4.36;81.20
79491;SHT31;73788;53.048;18.472;2023-12-29T03:50:17;4.37;81.20
79491;SHT31;73788;53.048;18.472;2023-12-29T03:52:45;4.44;81.22
79491;SHT31;73788;53.048;18.472;2023-12-29T03:55:12;4.42;81.20
79491;SHT31;73788;53.048;18.472;2023-12-29T03:57:44;4.44;81.26
79491;SHT31;73788;53.048;18.472;2023-12-29T04:00:12;4.46;81.29
79491;SHT31;73788;53.048;18.472;2023-12-29T04:02:40;4.51;81.30
79491;SHT31;73788;53.048;18.472;2023-12-29T04:05:10;4.53;81.30
79491;SHT31;73788;53.048;18.472;2023-12-29T04:07:41;4.54;81.30
79491;SHT31;73788;53.048;18.472;2023-12-29T04:10:08;4.54;81.30
79491;SHT31;73788;53.048;18.472;2023-12-29T04:12:36;4.53;81.30
79491;SHT31;73788;53.048;18.472;2023-12-29T04:15:04;4.52;81.32
79491;SHT31;73788;53.048;18.472;2023-12-29T04:17:31;4.50;81.35
79491;SHT31;73788;53.048;18.472;2023-12-29T04:19:59;4.45;81.36
79491;SHT31;73788;53.048;18.472;2023-12-29T04:22:26;4.39;81.38
79491;SHT31;73788;53.048;18.472;2023-12-29T04:24:54;4.36;81.39
79491;SHT31;73788;53.048;18.472;2023-12-29T04:27:21;4.38;81.40
79491;SHT31;73788;53.048;18.472;2023-12-29T04:29:49;4.37;81.40
79491;SHT31;73788;53.048;18.472;2023-12-29T04:32:16;4.38;81.40
79491;SHT31;73788;53.048;18.472;2023-12-29T04:34:43;4.43;81.40
79491;SHT31;73788;53.048;18.472;2023-12-29T04:37:14;4.47;81.46
79491;SHT31;73788;53.048;18.472;2023-12-29T04:39:41;4.55;81.47
79491;SHT31;73788;53.048;18.472;2023-12-29T04:42:08;4.62;81.50
79491;SHT31;73788;53.048;18.472;2023-12-29T04:44:36;4.69;81.50
79491;SHT31;73788;53.048;18.472;2023-12-29T04:47:03;4.72;81.50
79491;SHT31;73788;53.048;18.472;2023-12-29T04:49:30;4.77;81.55
79491;SHT31;73788;53.048;18.472;2023-12-29T04:51:58;4.80;81.57
79491;SHT31;73788;53.048;18.472;2023-12-29T04:54:25;4.85;81.59
79491;SHT31;73788;53.048;18.472;2023-12-29T04:56:53;4.90;81.60
79491;SHT31;73788;53.048;18.472;2023-12-29T04:59:20;4.97;81.60
79491;SHT31;73788;53.048;18.472;2023-12-29T05:01:47;5.07;81.63
79491;SHT31;73788;53.048;18.472;2023-12-29T05:04:14;5.10;81.67
79491;SHT31;73788;53.048;18.472;2023-12-29T05:06:43;5.10;81.67
79491;SHT31;73788;53.048;18.472;2023-12-29T05:09:10;5.12;81.69
79491;SHT31;73788;53.048;18.472;2023-12-29T05:11:38;5.15;81.70
79491;SHT31;73788;53.048;18.472;2023-12-29T05:14:06;5.15;81.70
79491;SHT31;73788;53.048;18.472;2023-12-29T05:16:33;5.20;81.71
79491;SHT31;73788;53.048;18.472;2023-12-29T05:19:00;5.27;81.74
79491;SHT31;73788;53.048;18.472;2023-12-29T05:21:28;5.32;81.76
79491;SHT31;73788;53.048;18.472;2023-12-29T05:23:55;5.30;81.77
79491;SHT31;73788;53.048;18.472;2023-12-29T05:26:22;5.28;81.80
79491;SHT31;73788;53.048;18.472;2023-12-29T05:28:49;5.26;81.80
79491;SHT31;73788;53.048;18.472;2023-12-29T05:31:16;5.27;81.80
79491;SHT31;73788;53.048;18.472;2023-12-29T05:33:44;5.23;81.80
79491;SHT31;73788;53.048;18.472;2023-12-29T05:36:11;5.20;81.80
79491;SHT31;73788;53.048;18.472;2023-12-29T05:38:39;5.20;81.80
79491;SHT31;73788;53.048;18.472;2023-12-29T05:41:07;5.20;81.81
79491;SHT31;73788;53.048;18.472;2023-12-29T05:43:39;5.22;81.83
79491;SHT31;73788;53.048;18.472;2023-12-29T05:46:09;5.24;81.83
79491;SHT31;73788;53.048;18.472;2023-12-29T05:49:00;5.27;81.87
79491;SHT31;73788;53.048;18.472;2023-12-29T05:51:27;5.30;81.90
79491;SHT31;73788;53.048;18.472;2023-12-29T05:53:55;5.34;81.90
79491;SHT31;73788;53.048;18.472;2023-12-29T05:56:22;5.37;81.90
79491;SHT31;73788;53.048;18.472;2023-12-29T05:58:49;5.42;81.90
79491;SHT31;73788;53.048;18.472;2023-12-29T06:01:17;5.48;81.91
79491;SHT31;73788;53.048;18.472;2023-12-29T06:03:44;5.51;81.91
79491;SHT31;73788;53.048;18.472;2023-12-29T06:06:11;5.47;81.90
79491;SHT31;73788;53.048;18.472;2023-12-29T06:08:39;5.47;81.92
79491;SHT31;73788;53.048;18.472;2023-12-29T06:11:06;5.49;81.92
79491;SHT31;73788;53.048;18.472;2023-12-29T06:13:34;5.48;81.93
79491;SHT31;73788;53.048;18.472;2023-12-29T06:16:01;5.45;81.96
79491;SHT31;73788;53.048;18.472;2023-12-29T06:18:29;5.39;81.96
79491;SHT31;73788;53.048;18.472;2023-12-29T06:20:56;5.33;81.96
79491;SHT31;73788;53.048;18.472;2023-12-29T06:23:23;5.26;81.93
79491;SHT31;73788;53.048;18.472;2023-12-29T06:25:52;5.22;81.95
79491;SHT31;73788;53.048;18.472;2023-12-29T06:28:19;5.19;81.97
79491;SHT31;73788;53.048;18.472;2023-12-29T06:30:46;5.14;81.94
79491;SHT31;73788;53.048;18.472;2023-12-29T06:33:13;5.10;81.94
79491;SHT31;73788;53.048;18.472;2023-12-29T06:35:40;5.03;81.96
79491;SHT31;73788;53.048;18.472;2023-12-29T06:38:08;4.93;81.94
79491;SHT31;73788;53.048;18.472;2023-12-29T06:40:35;4.95;81.96
79491;SHT31;73788;53.048;18.472;2023-12-29T06:43:02;5.06;81.99
79491;SHT31;73788;53.048;18.472;2023-12-29T06:45:30;5.13;82.00
79491;SHT31;73788;53.048;18.472;2023-12-29T06:47:57;5.12;82.00
79491;SHT31;73788;53.048;18.472;2023-12-29T06:50:24;5.08;82.00
79491;SHT31;73788;53.048;18.472;2023-12-29T06:52:52;5.09;82.00
79491;SHT31;73788;53.048;18.472;2023-12-29T06:55:19;5.17;82.00
79491;SHT31;73788;53.048;18.472;2023-12-29T06:57:46;5.22;82.00
79491;SHT31;73788;53.048;18.472;2023-12-29T07:00:13;5.29;82.00
79491;SHT31;73788;53.048;18.472;2023-12-29T07:02:41;5.35;82.02
79491;SHT31;73788;53.048;18.472;2023-12-29T07:05:09;5.42;82.03
79491;SHT31;73788;53.048;18.472;2023-12-29T07:07:36;5.49;82.08
79491;SHT31;73788;53.048;18.472;2023-12-29T07:10:04;5.55;82.07
79491;SHT31;73788;53.048;18.472;2023-12-29T07:12:32;5.62;82.09
79491;SHT31;73788;53.048;18.472;2023-12-29T07:15:00;5.63;82.09
79491;SHT31;73788;53.048;18.472;2023-12-29T07:17:27;5.66;82.10
79491;SHT31;73788;53.048;18.472;2023-12-29T07:19:54;5.70;82.10
79491;SHT31;73788;53.048;18.472;2023-12-29T07:22:21;5.74;82.10
79491;SHT31;73788;53.048;18.472;2023-12-29T07:24:48;5.76;82.10
79491;SHT31;73788;53.048;18.472;2023-12-29T07:27:16;5.78;82.10
79491;SHT31;73788;53.048;18.472;2023-12-29T07:29:43;5.78;82.10
79491;SHT31;73788;53.048;18.472;2023-12-29T07:32:10;5.80;82.10
79491;SHT31;73788;53.048;18.472;2023-12-29T07:34:37;5.84;82.10
79491;SHT31;73788;53.048;18.472;2023-12-29T07:37:04;5.90;82.11
79491;SHT31;73788;53.048;18.472;2023-12-29T07:39:32;5.95;82.11
79491;SHT31;73788;53.048;18.472;2023-12-29T07:41:59;6.02;82.10
79491;SHT31;73788;53.048;18.472;2023-12-29T07:44:26;6.09;82.14
79491;SHT31;73788;53.048;18.472;2023-12-29T07:46:53;6.14;82.15
79491;SHT31;73788;53.048;18.472;2023-12-29T07:49:24;6.17;82.16
79491;SHT31;73788;53.048;18.472;2023-12-29T07:51:52;6.21;82.18
79491;SHT31;73788;53.048;18.472;2023-12-29T07:54:19;6.22;82.18
79491;SHT31;73788;53.048;18.472;2023-12-29T07:56:46;6.26;82.15
79491;SHT31;73788;53.048;18.472;2023-12-29T07:59:13;6.33;82.18
79491;SHT31;73788;53.048;18.472;2023-12-29T08:01:40;6.39;82.19
79491;SHT31;73788;53.048;18.472;2023-12-29T08:04:08;6.41;82.18
79491;SHT31;73788;53.048;18.472;2023-12-29T08:06:37;6.44;82.18
79491;SHT31;73788;53.048;18.472;2023-12-29T08:09:05;6.52;82.20
79491;SHT31;73788;53.048;18.472;2023-12-29T08:11:34;6.57;82.19
79491;SHT31;73788;53.048;18.472;2023-12-29T08:14:01;6.63;82.20
79491;SHT31;73788;53.048;18.472;2023-12-29T08:16:28;6.67;82.20
79491;SHT31;73788;53.048;18.472;2023-12-29T08:18:55;6.70;82.20
79491;SHT31;73788;53.048;18.472;2023-12-29T08:21:22;6.75;82.20
79491;SHT31;73788;53.048;18.472;2023-12-29T08:23:50;6.79;82.20
79491;SHT31;73788;53.048;18.472;2023-12-29T08:26:17;6.84;82.20
79491;SHT31;73788;53.048;18.472;2023-12-29T08:28:44;6.90;82.18
79491;SHT31;73788;53.048;18.472;2023-12-29T08:31:12;6.99;82.19
79491;SHT31;73788;53.048;18.472;2023-12-29T08:33:42;7.08;82.18
79491;SHT31;73788;53.048;18.472;2023-12-29T08:36:09;7.18;82.18
79491;SHT31;73788;53.048;18.472;2023-12-29T08:38:38;7.26;82.19
79491;SHT31;73788;53.048;18.472;2023-12-29T08:41:06;7.32;82.18
79491;SHT31;73788;53.048;18.472;2023-12-29T08:43:33;7.41;82.19
79491;SHT31;73788;53.048;18.472;2023-12-29T08:46:02;7.49;82.15
79491;SHT31;73788;53.048;18.472;2023-12-29T08:48:30;7.60;82.16
79491;SHT31;73788;53.048;18.472;2023-12-29T08:50:58;7.62;82.13
79491;SHT31;73788;53.048;18.472;2023-12-29T08:53:25;7.63;82.11
79491;SHT31;73788;53.048;18.472;2023-12-29T08:55:52;7.69;82.10
79491;SHT31;73788;53.048;18.472;2023-12-29T08:58:19;7.69;82.10
79491;SHT31;73788;53.048;18.472;2023-12-29T09:00:47;7.69;82.10
79491;SHT31;73788;53.048;18.472;2023-12-29T09:03:14;7.69;82.08
79491;SHT31;73788;53.048;18.472;2023-12-29T09:05:41;7.67;82.03
79491;SHT31;73788;53.048;18.472;2023-12-29T09:08:08;7.69;82.01
79491;SHT31;73788;53.048;18.472;2023-12-29T09:10:36;7.75;82.00
79491;SHT31;73788;53.048;18.472;2023-12-29T09:13:03;7.86;82.00
79491;SHT31;73788;53.048;18.472;2023-12-29T09:15:31;7.94;82.00
79491;SHT31;73788;53.048;18.472;2023-12-29T09:17:59;8.00;82.00
79491;SHT31;73788;53.048;18.472;2023-12-29T09:20:26;8.04;81.97
79491;SHT31;73788;53.048;18.472;2023-12-29T09:22:53;8.07;81.92
79491;SHT31;73788;53.048;18.472;2023-12-29T09:25:22;8.11;81.90
79491;SHT31;73788;53.048;18.472;2023-12-29T09:27:49;8.18;81.91
79491;SHT31;73788;53.048;18.472;2023-12-29T09:30:19;8.23;81.90
79491;SHT31;73788;53.048;18.472;2023-12-29T09:32:54;8.34;81.87
79491;SHT31;73788;53.048;18.472;2023-12-29T09:35:24;8.47;81.81
79491;SHT31;73788;53.048;18.472;2023-12-29T09:37:52;8.54;81.80
79491;SHT31;73788;53.048;18.472;2023-12-29T09:40:20;8.57;81.80
79491;SHT31;73788;53.048;18.472;2023-12-29T09:42:47;8.59;81.77
79491;SHT31;73788;53.048;18.472;2023-12-29T09:45:15;8.61;81.72
79491;SHT31;73788;53.048;18.472;2023-12-29T09:47:52;8.64;81.70
79491;SHT31;73788;53.048;18.472;2023-12-29T09:50:21;8.74;81.69
79491;SHT31;73788;53.048;18.472;2023-12-29T09:52:49;8.81;81.66
79491;SHT31;73788;53.048;18.472;2023-12-29T09:55:17;8.87;81.61
79491;SHT31;73788;53.048;18.472;2023-12-29T09:57:46;8.91;81.60
79491;SHT31;73788;53.048;18.472;2023-12-29T10:00:16;8.95;81.56
79491;SHT31;73788;53.048;18.472;2023-12-29T10:02:45;9.01;81.52
79491;SHT31;73788;53.048;18.472;2023-12-29T10:05:13;9.02;81.50
79491;SHT31;73788;53.048;18.472;2023-12-29T10:07:41;9.05;81.46
79491;SHT31;73788;53.048;18.472;2023-12-29T10:10:16;9.08;81.40
79491;SHT31;73788;53.048;18.472;2023-12-29T10:12:46;9.12;81.39
79491;SHT31;73788;53.048;18.472;2023-12-29T10:15:24;9.14;81.34
79491;SHT31;73788;53.048;18.472;2023-12-29T10:18:55;9.23;81.30
79491;SHT31;73788;53.048;18.472;2023-12-29T10:21:33;9.32;81.25
79491;SHT31;73788;53.048;18.472;2023-12-29T10:24:10;9.44;81.20
79491;SHT31;73788;53.048;18.472;2023-12-29T10:26:46;9.53;81.19
79491;SHT31;73788;53.048;18.472;2023-12-29T10:29:14;9.53;81.11
79491;SHT31;73788;53.048;18.472;2023-12-29T10:31:41;9.58;81.08
79491;SHT31;73788;53.048;18.472;2023-12-29T10:34:21;9.60;81.01
79491;SHT31;73788;53.048;18.472;2023-12-29T10:36:56;9.60;80.97
79491;SHT31;73788;53.048;18.472;2023-12-29T10:39:24;9.61;80.89
79491;SHT31;73788;53.048;18.472;2023-12-29T10:42:07;9.61;80.87
79491;SHT31;73788;53.048;18.472;2023-12-29T10:44:36;9.61;80.80
79491;SHT31;73788;53.048;18.472;2023-12-29T10:47:10;9.66;80.76
79491;SHT31;73788;53.048;18.472;2023-12-29T10:49:39;9.67;80.70
79491;SHT31;73788;53.048;18.472;2023-12-29T10:52:11;9.64;80.66
79491;SHT31;73788;53.048;18.472;2023-12-29T10:54:42;9.57;80.60
79491;SHT31;73788;53.048;18.472;2023-12-29T10:57:11;9.51;80.51
79491;SHT31;73788;53.048;18.472;2023-12-29T10:59:39;9.51;80.50
79491;SHT31;73788;53.048;18.472;2023-12-29T11:02:07;9.49;80.40
79491;SHT31;73788;53.048;18.472;2023-12-29T11:04:41;9.56;80.38
79491;SHT31;73788;53.048;18.472;2023-12-29T11:07:11;9.73;80.32
79491;SHT31;73788;53.048;18.472;2023-12-29T11:09:39;9.85;80.27
79491;SHT31;73788;53.048;18.472;2023-12-29T11:12:08;9.97;80.23
79491;SHT31;73788;53.048;18.472;2023-12-29T11:14:38;9.93;80.15
79491;SHT31;73788;53.048;18.472;2023-12-29T11:17:10;9.90;80.10
79491;SHT31;73788;53.048;18.472;2023-12-29T11:19:41;9.89;80.03
79491;SHT31;73788;53.048;18.472;2023-12-29T11:22:14;9.90;79.99
79491;SHT31;73788;53.048;18.472;2023-12-29T11:24:45;9.94;79.92
79491;SHT31;73788;53.048;18.472;2023-12-29T11:27:14;9.98;79.86
79491;SHT31;73788;53.048;18.472;2023-12-29T11:29:43;10.21;79.81
79491;SHT31;73788;53.048;18.472;2023-12-29T11:32:16;10.63;79.79
79491;SHT31;73788;53.048;18.472;2023-12-29T11:34:54;10.75;79.72
79491;SHT31;73788;53.048;18.472;2023-12-29T11:37:47;10.74;79.66
79491;SHT31;73788;53.048;18.472;2023-12-29T11:40:31;10.87;79.60
79491;SHT31;73788;53.048;18.472;2023-12-29T11:43:15;11.39;79.57
79491;SHT31;73788;53.048;18.472;2023-12-29T11:45:45;11.42;79.48
79491;SHT31;73788;53.048;18.472;2023-12-29T11:48:12;11.24;79.40
79491;SHT31;73788;53.048;18.472;2023-12-29T11:50:49;11.20;79.32
79491;SHT31;73788;53.048;18.472;2023-12-29T11:53:30;11.25;79.27
79491;SHT31;73788;53.048;18.472;2023-12-29T11:55:59;11.36;79.20
79491;SHT31;73788;53.048;18.472;2023-12-29T11:58:27;11.69;79.12
79491;SHT31;73788;53.048;18.472;2023-12-29T12:00:55;11.89;79.09
79491;SHT31;73788;53.048;18.472;2023-12-29T12:03:26;11.85;79.00
79491;SHT31;73788;53.048;18.472;2023-12-29T12:05:58;11.92;78.92
79491;SHT31;73788;53.048;18.472;2023-12-29T12:08:33;11.85;78.82
79491;SHT31;73788;53.048;18.472;2023-12-29T12:14:02;11.66;78.63
79491;SHT31;73788;53.048;18.472;2023-12-29T12:19:11;11.42;78.43
79491;SHT31;73788;53.048;18.472;2023-12-29T12:21:40;11.24;78.33
79491;SHT31;73788;53.048;18.472;2023-12-29T12:24:07;11.07;78.25
79491;SHT31;73788;53.048;18.472;2023-12-29T12:26:35;10.89;78.15
79491;SHT31;73788;53.048;18.472;2023-12-29T12:29:03;10.78;78.06
79491;SHT31;73788;53.048;18.472;2023-12-29T12:31:33;10.73;77.99
79491;SHT31;73788;53.048;18.472;2023-12-29T12:34:00;10.67;77.90
79491;SHT31;73788;53.048;18.472;2023-12-29T12:36:27;10.63;77.82
79491;SHT31;73788;53.048;18.472;2023-12-29T12:38:55;10.58;77.75
79491;SHT31;73788;53.048;18.472;2023-12-29T12:41:25;10.51;77.66
79491;SHT31;73788;53.048;18.472;2023-12-29T12:49:14;10.35;77.40
79491;SHT31;73788;53.048;18.472;2023-12-29T12:51:43;10.35;77.34
79491;SHT31;73788;53.048;18.472;2023-12-29T12:54:10;10.32;77.29
79491;SHT31;73788;53.048;18.472;2023-12-29T12:56:42;10.28;77.20
79491;SHT31;73788;53.048;18.472;2023-12-29T12:59:11;10.26;77.10
79491;SHT31;73788;53.048;18.472;2023-12-29T13:01:40;10.23;77.06
79491;SHT31;73788;53.048;18.472;2023-12-29T13:04:07;10.20;77.00
79491;SHT31;73788;53.048;18.472;2023-12-29T13:06:39;10.21;76.94
79491;SHT31;73788;53.048;18.472;2023-12-29T13:09:12;10.19;76.86
79491;SHT31;73788;53.048;18.472;2023-12-29T13:11:44;10.19;76.80
79491;SHT31;73788;53.048;18.472;2023-12-29T13:14:24;10.18;76.73
79491;SHT31;73788;53.048;18.472;2023-12-29T13:16:52;10.18;76.70
79491;SHT31;73788;53.048;18.472;2023-12-29T13:21:51;10.18;76.54
79491;SHT31;73788;53.048;18.472;2023-12-29T13:24:23;10.16;76.50
79491;SHT31;73788;53.048;18.472;2023-12-29T13:26:54;10.13;76.44
79491;SHT31;73788;53.048;18.472;2023-12-29T13:29:24;10.10;76.39
79491;SHT31;73788;53.048;18.472;2023-12-29T13:31:53;10.07;76.32
79491;SHT31;73788;53.048;18.472;2023-12-29T13:37:16;9.98;76.20
79491;SHT31;73788;53.048;18.472;2023-12-29T13:39:53;9.95;76.12
79491;SHT31;73788;53.048;18.472;2023-12-29T13:42:34;9.91;76.09
79491;SHT31;73788;53.048;18.472;2023-12-29T13:45:06;9.88;76.04
79491;SHT31;73788;53.048;18.472;2023-12-29T13:47:37;9.84;75.99
79491;SHT31;73788;53.048;18.472;2023-12-29T13:50:05;9.79;75.92
79491;SHT31;73788;53.048;18.472;2023-12-29T13:52:37;9.77;75.88
79491;SHT31;73788;53.048;18.472;2023-12-29T13:55:05;9.76;75.81
79491;SHT31;73788;53.048;18.472;2023-12-29T13:57:33;9.74;75.80
79491;SHT31;73788;53.048;18.472;2023-12-29T14:00:21;9.70;75.75
79491;SHT31;73788;53.048;18.472;2023-12-29T14:05:27;9.65;75.68
79491;SHT31;73788;53.048;18.472;2023-12-29T14:08:18;9.63;75.61
79491;SHT31;73788;53.048;18.472;2023-12-29T14:10:49;9.62;75.59
79491;SHT31;73788;53.048;18.472;2023-12-29T14:13:16;9.60;75.51
79491;SHT31;73788;53.048;18.472;2023-12-29T14:15:45;9.60;75.50
79491;SHT31;73788;53.048;18.472;2023-12-29T14:18:26;9.58;75.46
79491;SHT31;73788;53.048;18.472;2023-12-29T14:21:00;9.54;75.40
79491;SHT31;73788;53.048;18.472;2023-12-29T14:23:28;9.53;75.38
79491;SHT31;73788;53.048;18.472;2023-12-29T14:26:02;9.51;75.35
79491;SHT31;73788;53.048;18.472;2023-12-29T14:28:30;9.50;75.30
79491;SHT31;73788;53.048;18.472;2023-12-29T14:31:01;9.49;75.29
79491;SHT31;73788;53.048;18.472;2023-12-29T14:33:30;9.48;75.26
79491;SHT31;73788;53.048;18.472;2023-12-29T14:35:57;9.44;75.20
79491;SHT31;73788;53.048;18.472;2023-12-29T14:38:25;9.42;75.20
79491;SHT31;73788;53.048;18.472;2023-12-29T14:40:52;9.40;75.17
79491;SHT31;73788;53.048;18.472;2023-12-29T14:43:19;9.35;75.12
79491;SHT31;73788;53.048;18.472;2023-12-29T14:45:47;9.35;75.10
79491;SHT31;73788;53.048;18.472;2023-12-29T14:48:14;9.34;75.10
79491;SHT31;73788;53.048;18.472;2023-12-29T14:50:42;9.30;75.07
79491;SHT31;73788;53.048;18.472;2023-12-29T14:53:12;9.28;75.03
79491;SHT31;73788;53.048;18.472;2023-12-29T14:55:39;9.26;75.00
79491;SHT31;73788;53.048;18.472;2023-12-29T14:58:07;9.27;75.00
79491;SHT31;73788;53.048;18.472;2023-12-29T15:00:34;9.29;75.00
79491;SHT31;73788;53.048;18.472;2023-12-29T15:03:01;9.31;75.00
79491;SHT31;73788;53.048;18.472;2023-12-29T15:05:31;9.32;74.98
79491;SHT31;73788;53.048;18.472;2023-12-29T15:07:58;9.30;74.96
79491;SHT31;73788;53.048;18.472;2023-12-29T15:10:45;9.30;74.91
79491;SHT31;73788;53.048;18.472;2023-12-29T15:13:12;9.31;74.90
79491;SHT31;73788;53.048;18.472;2023-12-29T15:15:41;9.37;74.90
79491;SHT31;73788;53.048;18.472;2023-12-29T15:18:09;9.39;74.90
79491;SHT31;73788;53.048;18.472;2023-12-29T15:20:36;9.39;74.90
79491;SHT31;73788;53.048;18.472;2023-12-29T15:23:03;9.36;74.90
79491;SHT31;73788;53.048;18.472;2023-12-29T15:25:30;9.31;74.88
79491;SHT31;73788;53.048;18.472;2023-12-29T15:49:53;9.90;74.79
79491;SHT31;73788;53.048;18.472;2023-12-29T15:52:20;9.80;74.78
79491;SHT31;73788;53.048;18.472;2023-12-29T15:54:46;9.70;74.73
79491;SHT31;73788;53.048;18.472;2023-12-29T15:57:13;9.66;74.70
79491;SHT31;73788;53.048;18.472;2023-12-29T15:59:40;9.62;74.70
79491;SHT31;73788;53.048;18.472;2023-12-29T16:02:06;9.60;74.70
79491;SHT31;73788;53.048;18.472;2023-12-29T16:04:33;9.56;74.68
79491;SHT31;73788;53.048;18.472;2023-12-29T16:07:00;9.52;74.67
79491;SHT31;73788;53.048;18.472;2023-12-29T16:09:26;9.49;74.62
79491;SHT31;73788;53.048;18.472;2023-12-29T16:11:53;9.48;74.61
79491;SHT31;73788;53.048;18.472;2023-12-29T16:14:23;9.47;74.60
79491;SHT31;73788;53.048;18.472;2023-12-29T16:16:49;9.45;74.60
79491;SHT31;73788;53.048;18.472;2023-12-29T16:19:16;9.43;74.59
79491;SHT31;73788;53.048;18.472;2023-12-29T16:21:42;9.38;74.58
79491;SHT31;73788;53.048;18.472;2023-12-29T16:24:09;9.31;74.52
79491;SHT31;73788;53.048;18.472;2023-12-29T16:26:38;9.28;74.50
79491;SHT31;73788;53.048;18.472;2023-12-29T16:29:06;9.26;74.50
79491;SHT31;73788;53.048;18.472;2023-12-29T16:31:33;9.26;74.50